createdAt,value
2023-03-24T00:00:48.964Z,8.14
2023-03-24T00:01:58.482Z,8.14
2023-03-24T00:03:03.110Z,8.13
2023-03-24T00:04:06.250Z,8.13
2023-03-24T00:05:16.025Z,8.12
2023-03-24T00:06:22.860Z,8.10
2023-03-24T00:07:26.283Z,8.08
2023-03-24T00:08:31.571Z,8.07
2023-03-24T00:09:34.383Z,8.06
2023-03-24T00:10:37.206Z,8.02
2023-03-24T00:11:40.274Z,8.01
2023-03-24T00:12:43.130Z,8.01
2023-03-24T00:13:47.559Z,8.01
2023-03-24T00:14:50.355Z,8.01
2023-03-24T00:15:53.334Z,8.02
2023-03-24T00:16:58.636Z,8.02
2023-03-24T00:18:01.650Z,8.02
2023-03-24T00:19:04.917Z,8.02
2023-03-24T00:20:14.552Z,8.00
2023-03-24T00:21:18.382Z,7.98
2023-03-24T00:22:21.382Z,7.98
2023-03-24T00:23:33.541Z,7.97
2023-03-24T00:24:36.577Z,7.98
2023-03-24T00:25:40.261Z,7.98
2023-03-24T00:26:43.066Z,7.99
2023-03-24T00:27:49.033Z,7.98
2023-03-24T00:28:53.002Z,7.98
2023-03-24T00:29:59.783Z,7.98
2023-03-24T00:31:05.335Z,7.98
2023-03-24T00:32:08.400Z,7.97
2023-03-24T00:33:11.429Z,7.96
2023-03-24T00:34:14.500Z,7.97
2023-03-24T00:35:18.476Z,7.98
2023-03-24T00:36:24.525Z,7.99
2023-03-24T00:37:27.567Z,7.98
2023-03-24T00:38:30.664Z,7.98
2023-03-24T00:39:33.642Z,7.97
2023-03-24T00:40:36.633Z,7.96
2023-03-24T00:41:39.614Z,7.96
2023-03-24T00:42:45.988Z,7.96
2023-03-24T00:43:50.873Z,7.96
2023-03-24T00:44:54.001Z,7.95
2023-03-24T00:46:08.644Z,7.95
2023-03-24T00:47:11.696Z,7.93
2023-03-24T00:48:36.374Z,7.92
2023-03-24T00:49:48.126Z,7.92
2023-03-24T00:50:52.094Z,7.92
2023-03-24T00:51:58.287Z,7.92
2023-03-24T00:53:02.126Z,7.90
2023-03-24T00:54:06.703Z,7.89
2023-03-24T00:55:15.834Z,7.88
2023-03-24T00:56:18.827Z,7.87
2023-03-24T00:57:22.261Z,7.87
2023-03-24T00:58:25.987Z,7.87
2023-03-24T00:59:29.842Z,7.87
2023-03-24T01:00:33.157Z,7.87
2023-03-24T01:01:37.838Z,7.87
2023-03-24T01:02:40.946Z,7.88
2023-03-24T01:03:48.195Z,7.86
2023-03-24T01:04:56.571Z,7.85
2023-03-24T01:06:04.996Z,7.85
2023-03-24T01:07:11.001Z,7.85
2023-03-24T01:08:20.955Z,7.85
2023-03-24T01:09:28.178Z,7.84
2023-03-24T01:10:34.394Z,7.84
2023-03-24T01:11:40.317Z,7.84
2023-03-24T01:12:43.480Z,7.82
2023-03-24T01:13:47.192Z,7.81
2023-03-24T01:14:51.250Z,7.81
2023-03-24T01:15:55.986Z,7.80
2023-03-24T01:16:59.950Z,7.79
2023-03-24T01:18:03.079Z,7.79
2023-03-24T01:19:06.835Z,7.78
2023-03-24T01:20:11.821Z,7.75
2023-03-24T01:21:14.688Z,7.74
2023-03-24T01:22:18.135Z,7.73
2023-03-24T01:23:23.787Z,7.72
2023-03-24T01:24:26.834Z,7.70
2023-03-24T01:25:30.598Z,7.68
2023-03-24T01:26:34.238Z,7.67
2023-03-24T01:27:37.674Z,7.65
2023-03-24T01:28:43.697Z,7.63
2023-03-24T01:29:46.983Z,7.63
2023-03-24T01:31:52.475Z,7.62
2023-03-24T01:32:57.053Z,7.61
2023-03-24T01:34:00.007Z,7.58
2023-03-24T01:35:03.874Z,7.59
2023-03-24T01:36:07.856Z,7.61
2023-03-24T01:37:11.209Z,7.60
2023-03-24T01:38:15.582Z,7.60
2023-03-24T01:39:18.510Z,7.59
2023-03-24T01:40:25.071Z,7.58
2023-03-24T01:41:33.143Z,7.58
2023-03-24T01:42:39.786Z,7.58
2023-03-24T01:43:43.405Z,7.58
2023-03-24T01:44:51.629Z,7.58
2023-03-24T01:46:02.553Z,7.58
2023-03-24T01:47:08.989Z,7.58
2023-03-24T01:48:24.103Z,7.58
2023-03-24T01:49:37.207Z,7.57
2023-03-24T01:50:43.176Z,7.57
2023-03-24T01:51:49.720Z,7.58
2023-03-24T01:52:52.655Z,7.59
2023-03-24T01:54:31.024Z,7.61
2023-03-24T01:55:38.765Z,7.62
2023-03-24T01:56:50.031Z,7.61
2023-03-24T01:57:56.474Z,7.61
2023-03-24T01:59:10.045Z,7.61
2023-03-24T02:00:30.933Z,7.59
2023-03-24T02:02:03.015Z,7.58
2023-03-24T02:03:18.524Z,7.58
2023-03-24T02:04:30.429Z,7.58
2023-03-24T02:05:39.986Z,7.58
2023-03-24T02:06:45.339Z,7.58
2023-03-24T02:08:11.468Z,7.58
2023-03-24T02:09:14.549Z,7.60
2023-03-24T02:10:20.156Z,7.60
2023-03-24T02:11:26.671Z,7.61
2023-03-24T02:12:33.067Z,7.59
2023-03-24T02:13:38.740Z,7.60
2023-03-24T02:14:42.541Z,7.59
2023-03-24T02:16:03.546Z,7.58
2023-03-24T02:17:48.222Z,7.58
2023-03-24T02:19:25.175Z,7.59
2023-03-24T02:20:39.274Z,7.60
2023-03-24T02:22:04.398Z,7.61
2023-03-24T02:23:22.542Z,7.62
2023-03-24T02:25:16.479Z,7.63
2023-03-24T02:26:45.687Z,7.64
2023-03-24T02:28:03.550Z,7.64
2023-03-24T02:29:35.080Z,7.64
2023-03-24T02:30:49.162Z,7.65
2023-03-24T02:32:23.707Z,7.64
2023-03-24T02:33:57.577Z,7.65
2023-03-24T02:35:31.517Z,7.66
2023-03-24T02:37:05.061Z,7.66
2023-03-24T02:38:46.722Z,7.66
2023-03-24T02:40:01.206Z,7.66
2023-03-24T02:41:17.133Z,7.66
2023-03-24T02:42:31.053Z,7.66
2023-03-24T02:43:39.689Z,7.67
2023-03-24T02:44:42.522Z,7.67
2023-03-24T02:46:14.137Z,7.68
2023-03-24T02:47:29.621Z,7.69
2023-03-24T02:49:08.818Z,7.69
2023-03-24T02:50:39.193Z,7.69
2023-03-24T02:51:56.252Z,7.68
2023-03-24T02:53:29.399Z,7.68
2023-03-24T02:55:13.034Z,7.69
2023-03-24T02:56:35.007Z,7.70
2023-03-24T02:57:52.881Z,7.70
2023-03-24T02:59:37.445Z,7.70
2023-03-24T03:00:52.713Z,7.70
2023-03-24T03:02:18.233Z,7.71
2023-03-24T03:03:35.763Z,7.70
2023-03-24T03:04:53.492Z,7.70
2023-03-24T03:06:06.158Z,7.70
2023-03-24T03:07:11.671Z,7.70
2023-03-24T03:08:17.591Z,7.70
2023-03-24T03:09:23.552Z,7.72
2023-03-24T03:10:35.347Z,7.71
2023-03-24T03:11:41.558Z,7.71
2023-03-24T03:12:49.482Z,7.71
2023-03-24T03:14:25.227Z,7.71
2023-03-24T03:15:34.855Z,7.70
2023-03-24T03:16:46.761Z,7.70
2023-03-24T03:17:59.072Z,7.69
2023-03-24T03:19:09.944Z,7.69
2023-03-24T03:20:20.752Z,7.69
2023-03-24T03:21:27.215Z,7.70
2023-03-24T03:22:43.171Z,7.71
2023-03-24T03:24:02.189Z,7.70
2023-03-24T03:25:06.902Z,7.71
2023-03-24T03:26:16.508Z,7.71
2023-03-24T03:27:27.365Z,7.71
2023-03-24T03:28:36.949Z,7.71
2023-03-24T03:29:46.196Z,7.70
2023-03-24T03:30:58.612Z,7.71
2023-03-24T03:32:08.514Z,7.71
2023-03-24T03:33:29.817Z,7.71
2023-03-24T03:34:44.708Z,7.71
2023-03-24T03:35:59.828Z,7.71
2023-03-24T03:37:22.411Z,7.71
2023-03-24T03:39:04.070Z,7.71
2023-03-24T03:40:12.650Z,7.70
2023-03-24T03:41:19.221Z,7.70
2023-03-24T03:42:23.624Z,7.70
2023-03-24T03:43:29.014Z,7.70
2023-03-24T03:44:31.992Z,7.70
2023-03-24T03:45:35.657Z,7.70
2023-03-24T03:46:39.357Z,7.70
2023-03-24T03:47:44.140Z,7.70
2023-03-24T03:48:47.307Z,7.71
2023-03-24T03:49:51.363Z,7.71
2023-03-24T03:51:10.209Z,7.72
2023-03-24T03:52:17.877Z,7.73
2023-03-24T03:53:27.000Z,7.73
2023-03-24T03:54:31.892Z,7.73
2023-03-24T03:55:35.616Z,7.73
2023-03-24T03:56:39.709Z,7.74
2023-03-24T03:57:56.040Z,7.75
2023-03-24T03:59:10.074Z,7.75
2023-03-24T04:00:23.599Z,7.75
2023-03-24T04:01:58.620Z,7.75
2023-03-24T04:03:33.398Z,7.75
2023-03-24T04:05:05.631Z,7.75
2023-03-24T04:06:27.783Z,7.73
2023-03-24T04:08:08.449Z,7.73
2023-03-24T04:09:55.984Z,7.72
2023-03-24T04:11:14.083Z,7.72
2023-03-24T04:12:45.830Z,7.73
2023-03-24T04:14:17.966Z,7.74
2023-03-24T04:15:36.977Z,7.74
2023-03-24T04:17:15.342Z,7.75
2023-03-24T04:18:49.705Z,7.76
2023-03-24T04:20:22.697Z,7.76
2023-03-24T04:22:05.065Z,7.76
2023-03-24T04:23:30.296Z,7.77
2023-03-24T04:24:55.338Z,7.78
2023-03-24T04:26:14.841Z,7.79
2023-03-24T04:27:27.208Z,7.79
2023-03-24T04:28:41.901Z,7.80
2023-03-24T04:30:17.541Z,7.81
2023-03-24T04:31:34.215Z,7.81
2023-03-24T04:32:47.697Z,7.82
2023-03-24T04:34:04.340Z,7.83
2023-03-24T04:35:20.683Z,7.83
2023-03-24T04:36:54.452Z,7.84
2023-03-24T04:38:08.747Z,7.85
2023-03-24T04:39:17.099Z,7.85
2023-03-24T04:40:26.728Z,7.86
2023-03-24T04:41:32.009Z,7.87
2023-03-24T04:42:52.470Z,7.89
2023-03-24T04:43:59.452Z,7.91
2023-03-24T04:45:04.713Z,7.92
2023-03-24T04:46:24.276Z,7.94
2023-03-24T04:47:38.555Z,7.95
2023-03-24T04:48:57.338Z,7.96
2023-03-24T04:50:11.428Z,7.96
2023-03-24T04:51:17.579Z,7.98
2023-03-24T04:52:29.477Z,7.99
2023-03-24T04:53:32.897Z,8.01
2023-03-24T04:54:36.333Z,8.03
2023-03-24T04:56:09.764Z,8.04
2023-03-24T04:57:38.956Z,8.06
2023-03-24T04:58:41.859Z,8.07
2023-03-24T04:59:45.132Z,8.08
2023-03-24T05:00:50.143Z,8.09
2023-03-24T05:01:53.708Z,8.11
2023-03-24T05:03:04.940Z,8.14
2023-03-24T05:04:08.587Z,8.16
2023-03-24T05:05:12.141Z,8.19
2023-03-24T05:06:19.754Z,8.21
2023-03-24T05:07:23.313Z,8.20
2023-03-24T05:08:29.525Z,8.21
2023-03-24T05:09:32.929Z,8.23
2023-03-24T05:10:36.732Z,8.25
2023-03-24T05:11:40.795Z,8.27
2023-03-24T05:12:44.265Z,8.28
2023-03-24T05:13:55.984Z,8.31
2023-03-24T05:14:58.917Z,8.34
2023-03-24T05:16:02.029Z,8.36
2023-03-24T05:17:13.346Z,8.37
2023-03-24T05:18:16.220Z,8.39
2023-03-24T05:19:19.172Z,8.40
2023-03-24T05:20:22.403Z,8.42
2023-03-24T05:21:26.320Z,8.43
2023-03-24T05:22:29.314Z,8.43
2023-03-24T05:23:32.090Z,8.45
2023-03-24T05:24:34.985Z,8.45
2023-03-24T05:25:37.962Z,8.46
2023-03-24T05:26:41.296Z,8.47
2023-03-24T05:27:54.954Z,8.49
2023-03-24T05:29:01.396Z,8.51
2023-03-24T05:30:06.430Z,8.53
2023-03-24T05:31:10.006Z,8.55
2023-03-24T05:32:22.967Z,8.58
2023-03-24T05:33:26.516Z,8.60
2023-03-24T05:34:29.522Z,8.61
2023-03-24T05:35:45.501Z,8.62
2023-03-24T05:36:49.003Z,8.63
2023-03-24T05:37:53.841Z,8.64
2023-03-24T05:38:56.908Z,8.65
2023-03-24T05:40:03.453Z,8.66
2023-03-24T05:41:26.533Z,8.68
2023-03-24T05:42:29.378Z,8.68
2023-03-24T05:43:33.800Z,8.70
2023-03-24T05:44:45.791Z,8.72
2023-03-24T05:45:56.297Z,8.74
2023-03-24T05:47:04.799Z,8.74
2023-03-24T05:48:08.014Z,8.76
2023-03-24T05:49:26.143Z,8.78
2023-03-24T05:50:30.101Z,8.79
2023-03-24T05:51:32.980Z,8.81
2023-03-24T05:52:39.033Z,8.81
2023-03-24T05:53:56.167Z,8.81
2023-03-24T05:55:19.419Z,8.82
2023-03-24T05:56:24.473Z,8.83
2023-03-24T05:57:36.824Z,8.85
2023-03-24T05:58:51.556Z,8.87
2023-03-24T05:59:54.632Z,8.88
2023-03-24T06:01:18.722Z,8.89
2023-03-24T06:02:21.973Z,8.90
2023-03-24T06:03:35.229Z,8.91
2023-03-24T06:04:48.985Z,8.93
2023-03-24T06:05:53.720Z,8.94
2023-03-24T06:06:59.137Z,8.95
2023-03-24T06:08:04.625Z,8.95
2023-03-24T06:09:10.175Z,8.97
2023-03-24T06:10:14.576Z,8.99
2023-03-24T06:11:22.194Z,9.01
2023-03-24T06:12:31.644Z,9.03
2023-03-24T06:13:37.391Z,9.05
2023-03-24T06:14:40.754Z,9.06
2023-03-24T06:15:49.622Z,9.08
2023-03-24T06:17:08.030Z,9.08
2023-03-24T06:18:14.372Z,9.08
2023-03-24T06:19:18.089Z,9.08
2023-03-24T06:20:30.035Z,9.09
2023-03-24T06:21:39.636Z,9.10
2023-03-24T06:22:44.553Z,9.10
2023-03-24T06:23:50.981Z,9.11
2023-03-24T06:25:00.426Z,9.12
2023-03-24T06:26:10.099Z,9.12
2023-03-24T06:27:18.725Z,9.12
2023-03-24T06:28:23.008Z,9.13
2023-03-24T06:29:26.519Z,9.14
2023-03-24T06:30:29.697Z,9.14
2023-03-24T06:31:32.742Z,9.15
2023-03-24T06:32:38.730Z,9.15
2023-03-24T06:33:42.730Z,9.16
2023-03-24T06:34:45.675Z,9.17
2023-03-24T06:35:53.362Z,9.17
2023-03-24T06:36:56.549Z,9.17
2023-03-24T06:37:59.497Z,9.17
2023-03-24T06:39:03.001Z,9.17
2023-03-24T06:40:10.889Z,9.16
2023-03-24T06:41:17.779Z,9.18
2023-03-24T06:42:20.892Z,9.18
2023-03-24T06:43:23.786Z,9.18
2023-03-24T06:44:29.276Z,9.19
2023-03-24T06:45:32.979Z,9.19
2023-03-24T06:46:36.819Z,9.20
2023-03-24T06:47:40.009Z,9.21
2023-03-24T06:48:43.055Z,9.23
2023-03-24T06:49:46.362Z,9.24
2023-03-24T06:50:49.374Z,9.25
2023-03-24T06:51:52.526Z,9.26
2023-03-24T06:52:56.107Z,9.27
2023-03-24T06:53:59.475Z,9.29
2023-03-24T06:55:02.852Z,9.30
2023-03-24T06:56:06.217Z,9.33
2023-03-24T06:57:14.194Z,9.34
2023-03-24T06:58:38.032Z,9.34
2023-03-24T06:59:42.937Z,9.35
2023-03-24T07:00:47.043Z,9.37
2023-03-24T07:02:17.547Z,9.39
2023-03-24T07:03:23.517Z,9.38
2023-03-24T07:05:01.264Z,9.39
2023-03-24T07:06:14.353Z,9.40
2023-03-24T07:08:37.234Z,9.43
2023-03-24T07:09:41.653Z,9.44
2023-03-24T07:10:45.403Z,9.45
2023-03-24T07:11:48.640Z,9.46
2023-03-24T07:12:51.683Z,9.48
2023-03-24T07:13:55.167Z,9.49
2023-03-24T07:14:58.434Z,9.51
2023-03-24T07:16:01.571Z,9.51
2023-03-24T07:17:04.812Z,9.52
2023-03-24T07:18:14.560Z,9.55
2023-03-24T07:19:19.953Z,9.56
2023-03-24T07:20:27.131Z,9.57
2023-03-24T07:21:50.341Z,9.58
2023-03-24T07:22:58.371Z,9.58
2023-03-24T07:24:19.982Z,9.61
2023-03-24T07:25:41.248Z,9.62
2023-03-24T07:26:58.712Z,9.63
2023-03-24T07:28:02.251Z,9.65
2023-03-24T07:29:05.066Z,9.68
2023-03-24T07:30:14.664Z,9.70
2023-03-24T07:31:22.995Z,9.73
2023-03-24T07:32:34.751Z,9.76
2023-03-24T07:33:38.413Z,9.78
2023-03-24T07:34:43.870Z,9.79
2023-03-24T07:35:47.126Z,9.81
2023-03-24T07:36:50.140Z,9.84
2023-03-24T07:37:53.094Z,9.87
2023-03-24T07:38:56.711Z,9.89
2023-03-24T07:40:06.999Z,9.92
2023-03-24T07:41:10.857Z,9.95
2023-03-24T07:42:16.668Z,9.99
2023-03-24T07:43:42.366Z,10.01
2023-03-24T07:44:59.928Z,10.03
2023-03-24T07:46:02.896Z,10.05
2023-03-24T07:47:06.231Z,10.07
2023-03-24T07:48:09.292Z,10.11
2023-03-24T07:49:19.436Z,10.15
2023-03-24T07:50:41.215Z,10.21
2023-03-24T07:52:06.405Z,10.24
2023-03-24T07:53:15.022Z,10.28
2023-03-24T07:54:18.567Z,10.32
2023-03-24T07:55:24.393Z,10.36
2023-03-24T07:56:31.820Z,10.40
2023-03-24T07:57:37.377Z,10.43
2023-03-24T07:58:43.601Z,10.46
2023-03-24T07:59:52.687Z,10.49
2023-03-24T08:01:03.689Z,10.53
2023-03-24T08:02:21.221Z,10.57
2023-03-24T08:03:33.943Z,10.62
2023-03-24T08:04:56.594Z,10.66
2023-03-24T08:06:22.749Z,10.72
2023-03-24T08:07:27.121Z,10.77
2023-03-24T08:08:31.729Z,10.81
2023-03-24T08:09:34.677Z,10.87
2023-03-24T08:10:37.589Z,10.90
2023-03-24T08:11:40.786Z,10.93
2023-03-24T08:12:43.658Z,10.96
2023-03-24T08:13:46.614Z,10.99
2023-03-24T08:14:49.493Z,11.03
2023-03-24T08:15:53.425Z,11.05
2023-03-24T08:16:56.412Z,11.09
2023-03-24T08:17:59.364Z,11.12
2023-03-24T08:19:02.420Z,11.15
2023-03-24T08:20:14.495Z,11.18
2023-03-24T08:21:18.018Z,11.23
2023-03-24T08:22:20.969Z,11.27
2023-03-24T08:23:24.232Z,11.31
2023-03-24T08:24:27.031Z,11.34
2023-03-24T08:25:30.493Z,11.37
2023-03-24T08:26:35.439Z,11.41
2023-03-24T08:27:40.228Z,11.43
2023-03-24T08:28:43.210Z,11.46
2023-03-24T08:29:46.520Z,11.50
2023-03-24T08:30:49.694Z,11.52
2023-03-24T08:31:52.883Z,11.55
2023-03-24T08:32:59.364Z,11.56
2023-03-24T08:34:04.854Z,11.57
2023-03-24T08:35:08.016Z,11.57
2023-03-24T08:36:10.993Z,11.58
2023-03-24T08:37:14.009Z,11.59
2023-03-24T08:38:18.823Z,11.60
2023-03-24T08:39:24.371Z,11.61
2023-03-24T08:40:29.772Z,11.63
2023-03-24T08:41:35.632Z,11.64
2023-03-24T08:42:38.541Z,11.66
2023-03-24T08:43:41.406Z,11.68
2023-03-24T08:44:44.975Z,11.71
2023-03-24T08:45:48.163Z,11.72
2023-03-24T08:46:51.177Z,11.72
2023-03-24T08:47:55.536Z,11.73
2023-03-24T08:48:59.534Z,11.74
2023-03-24T08:50:02.415Z,11.75
2023-03-24T08:51:14.637Z,11.78
2023-03-24T08:52:22.278Z,11.82
2023-03-24T08:53:25.215Z,11.83
2023-03-24T08:54:28.320Z,11.85
2023-03-24T08:55:32.314Z,11.88
2023-03-24T08:56:35.436Z,11.89
2023-03-24T08:57:38.400Z,11.89
2023-03-24T08:58:41.344Z,11.89
2023-03-24T08:59:44.373Z,11.90
2023-03-24T09:00:48.801Z,11.90
2023-03-24T09:01:51.877Z,11.90
2023-03-24T09:02:55.956Z,11.90
2023-03-24T09:03:59.443Z,11.91
2023-03-24T09:05:02.956Z,11.91
2023-03-24T09:06:06.343Z,11.92
2023-03-24T09:07:10.468Z,11.91
2023-03-24T09:08:18.022Z,11.90
2023-03-24T09:09:20.869Z,11.90
2023-03-24T09:10:23.908Z,11.89
2023-03-24T09:11:26.929Z,11.88
2023-03-24T09:12:29.749Z,11.89
2023-03-24T09:13:32.750Z,11.89
2023-03-24T09:14:36.039Z,11.88
2023-03-24T09:15:39.063Z,11.87
2023-03-24T09:16:48.806Z,11.86
2023-03-24T09:17:51.877Z,11.85
2023-03-24T09:18:54.862Z,11.85
2023-03-24T09:19:58.140Z,11.85
2023-03-24T09:21:01.988Z,11.85
2023-03-24T09:22:04.859Z,11.84
2023-03-24T09:23:07.730Z,11.84
2023-03-24T09:24:10.856Z,11.83
2023-03-24T09:25:19.129Z,11.84
2023-03-24T09:26:23.069Z,11.86
2023-03-24T09:27:25.964Z,11.87
2023-03-24T09:28:28.842Z,11.90
2023-03-24T09:29:31.694Z,11.94
2023-03-24T09:30:35.278Z,11.97
2023-03-24T09:31:38.594Z,12.02
2023-03-24T09:32:41.797Z,12.07
2023-03-24T09:33:44.835Z,12.11
2023-03-24T09:34:47.910Z,12.15
2023-03-24T09:36:00.077Z,12.21
2023-03-24T09:37:05.351Z,12.27
2023-03-24T09:38:08.196Z,12.32
2023-03-24T09:39:11.034Z,12.36
2023-03-24T09:40:21.460Z,12.40
2023-03-24T09:41:26.918Z,12.47
2023-03-24T09:42:33.955Z,12.49
2023-03-24T09:43:41.707Z,12.51
2023-03-24T09:44:50.157Z,12.56
2023-03-24T09:45:57.074Z,12.62
2023-03-24T09:47:05.787Z,12.68
2023-03-24T09:48:26.469Z,12.73
2023-03-24T09:49:33.767Z,12.81
2023-03-24T09:50:49.069Z,12.88
2023-03-24T09:52:00.574Z,12.95
2023-03-24T09:53:26.550Z,13.01
2023-03-24T09:54:41.062Z,13.10
2023-03-24T09:55:45.334Z,13.17
2023-03-24T09:56:50.912Z,13.24
2023-03-24T09:58:00.595Z,13.31
2023-03-24T09:59:07.671Z,13.38
2023-03-24T10:00:23.239Z,13.45
2023-03-24T10:01:27.103Z,13.52
2023-03-24T10:02:31.684Z,13.57
2023-03-24T10:03:34.810Z,13.62
2023-03-24T10:04:37.808Z,13.66
2023-03-24T10:06:14.114Z,13.70
2023-03-24T10:07:40.712Z,13.72
2023-03-24T10:09:04.673Z,13.75
2023-03-24T10:10:24.494Z,13.81
2023-03-24T10:11:35.278Z,13.86
2023-03-24T10:12:48.120Z,13.91
2023-03-24T10:14:01.484Z,13.98
2023-03-24T10:15:37.406Z,14.00
2023-03-24T10:17:05.764Z,14.01
2023-03-24T10:18:12.018Z,14.02
2023-03-24T10:19:27.221Z,14.02
2023-03-24T10:20:49.763Z,14.04
2023-03-24T10:22:12.565Z,14.06
2023-03-24T10:23:53.001Z,14.10
2023-03-24T10:25:08.142Z,14.13
2023-03-24T10:26:29.519Z,14.13
2023-03-24T10:27:53.856Z,14.14
2023-03-24T10:28:59.515Z,14.17
2023-03-24T10:30:16.633Z,14.20
2023-03-24T10:31:28.128Z,14.24
2023-03-24T10:32:35.325Z,14.26
2023-03-24T10:33:43.526Z,14.28
2023-03-24T10:34:52.835Z,14.31
2023-03-24T10:36:08.269Z,14.33
2023-03-24T10:37:14.507Z,14.34
2023-03-24T10:38:20.807Z,14.33
2023-03-24T10:39:28.630Z,14.32
2023-03-24T10:40:47.657Z,14.32
2023-03-24T10:41:52.709Z,14.33
2023-03-24T10:43:06.840Z,14.38
2023-03-24T10:44:14.138Z,14.47
2023-03-24T10:45:27.137Z,14.55
2023-03-24T10:46:32.181Z,14.66
2023-03-24T10:47:36.597Z,14.71
2023-03-24T10:48:45.547Z,14.74
2023-03-24T10:50:12.329Z,14.76
2023-03-24T10:51:19.513Z,14.79
2023-03-24T10:52:24.619Z,14.82
2023-03-24T10:53:27.709Z,14.84
2023-03-24T10:54:31.979Z,14.86
2023-03-24T10:55:39.984Z,14.91
2023-03-24T10:56:46.844Z,14.96
2023-03-24T10:57:55.128Z,15.02
2023-03-24T10:58:58.223Z,15.12
2023-03-24T11:00:19.024Z,15.21
2023-03-24T11:01:30.688Z,15.31
2023-03-24T11:02:34.152Z,15.37
2023-03-24T11:03:38.106Z,15.45
2023-03-24T11:04:45.327Z,15.52
2023-03-24T11:05:48.415Z,15.61
2023-03-24T11:07:05.473Z,15.66
2023-03-24T11:08:14.551Z,15.72
2023-03-24T11:09:22.536Z,15.75
2023-03-24T11:10:26.405Z,15.75
2023-03-24T11:11:31.794Z,15.73
2023-03-24T11:12:40.897Z,15.72
2023-03-24T11:13:55.864Z,15.71
2023-03-24T11:15:21.239Z,15.69
2023-03-24T11:16:32.046Z,15.68
2023-03-24T11:17:34.943Z,15.67
2023-03-24T11:18:38.924Z,15.70
2023-03-24T11:19:52.638Z,15.71
2023-03-24T11:21:04.013Z,15.72
2023-03-24T11:22:07.562Z,15.70
2023-03-24T11:23:27.878Z,15.70
2023-03-24T11:24:31.490Z,15.71
2023-03-24T11:25:39.138Z,15.70
2023-03-24T11:26:47.022Z,15.70
2023-03-24T11:27:59.374Z,15.71
2023-03-24T11:29:09.984Z,15.71
2023-03-24T11:30:14.251Z,15.69
2023-03-24T11:31:30.842Z,15.68
2023-03-24T11:32:35.269Z,15.68
2023-03-24T11:33:56.741Z,15.66
2023-03-24T11:35:09.199Z,15.66
2023-03-24T11:36:30.989Z,15.64
2023-03-24T11:37:36.827Z,15.65
2023-03-24T11:38:39.818Z,15.65
2023-03-24T11:39:44.382Z,15.67
2023-03-24T11:40:58.315Z,15.68
2023-03-24T11:42:10.614Z,15.71
2023-03-24T11:43:22.890Z,15.73
2023-03-24T11:44:26.024Z,15.77
2023-03-24T11:45:42.123Z,15.78
2023-03-24T11:46:48.632Z,15.81
2023-03-24T11:47:54.258Z,15.82
2023-03-24T11:48:59.739Z,15.82
2023-03-24T11:50:11.400Z,15.80
2023-03-24T11:51:38.773Z,15.78
2023-03-24T11:53:07.784Z,15.78
2023-03-24T11:54:15.138Z,15.79
2023-03-24T11:55:25.068Z,15.78
2023-03-24T11:56:40.637Z,15.79
2023-03-24T11:57:56.460Z,15.80
2023-03-24T11:59:14.440Z,15.80
2023-03-24T12:00:29.467Z,15.81
2023-03-24T12:01:47.203Z,15.82
2023-03-24T12:03:09.801Z,15.82
2023-03-24T12:04:19.483Z,15.85
2023-03-24T12:05:33.497Z,15.86
2023-03-24T12:07:18.712Z,15.86
2023-03-24T12:08:43.237Z,15.83
2023-03-24T12:10:05.207Z,15.81
2023-03-24T12:11:19.357Z,15.82
2023-03-24T12:12:41.735Z,15.83
2023-03-24T12:13:50.682Z,15.83
2023-03-24T12:15:25.117Z,15.82
2023-03-24T12:17:03.957Z,15.78
2023-03-24T12:18:18.741Z,15.71
2023-03-24T12:19:31.053Z,15.65
2023-03-24T12:20:45.272Z,15.62
2023-03-24T12:21:54.045Z,15.61
2023-03-24T12:23:12.770Z,15.59
2023-03-24T12:24:37.381Z,15.57
2023-03-24T12:25:53.244Z,15.53
2023-03-24T12:27:00.376Z,15.51
2023-03-24T12:28:08.816Z,15.48
2023-03-24T12:29:49.841Z,15.47
2023-03-24T12:30:58.828Z,15.41
2023-03-24T12:32:21.560Z,15.37
2023-03-24T12:33:50.513Z,15.34
2023-03-24T12:35:04.034Z,15.32
2023-03-24T12:36:31.800Z,15.31
2023-03-24T12:37:46.880Z,15.29
2023-03-24T12:38:59.878Z,15.27
2023-03-24T12:40:11.821Z,15.25
2023-03-24T12:41:17.984Z,15.25
2023-03-24T12:42:24.461Z,15.24
2023-03-24T12:43:52.230Z,15.22
2023-03-24T12:45:13.922Z,15.21
2023-03-24T12:46:40.625Z,15.19
2023-03-24T12:48:11.722Z,15.17
2023-03-24T12:49:15.248Z,15.16
2023-03-24T12:50:42.435Z,15.16
2023-03-24T12:51:55.949Z,15.17
2023-03-24T12:53:08.730Z,15.17
2023-03-24T12:54:26.295Z,15.18
2023-03-24T12:55:43.346Z,15.19
2023-03-24T12:57:02.289Z,15.20
2023-03-24T12:58:22.689Z,15.19
2023-03-24T13:00:01.581Z,15.19
2023-03-24T13:01:19.298Z,15.18
2023-03-24T13:02:30.764Z,15.17
2023-03-24T13:03:41.857Z,15.16
2023-03-24T13:04:47.819Z,15.14
2023-03-24T13:05:58.185Z,15.13
2023-03-24T13:07:18.215Z,15.12
2023-03-24T13:08:29.612Z,15.11
2023-03-24T13:09:46.182Z,15.10
2023-03-24T13:10:54.579Z,15.09
2023-03-24T13:12:20.785Z,15.07
2023-03-24T13:13:30.000Z,15.07
2023-03-24T13:14:57.902Z,15.06
2023-03-24T13:16:05.352Z,15.04
2023-03-24T13:17:17.212Z,15.02
2023-03-24T13:18:37.509Z,15.02
2023-03-24T13:19:42.227Z,15.01
2023-03-24T13:20:50.920Z,15.01
2023-03-24T13:21:56.479Z,15.00
2023-03-24T13:23:17.650Z,14.99
2023-03-24T13:24:21.627Z,14.98
2023-03-24T13:25:41.221Z,14.96
2023-03-24T13:27:02.951Z,14.95
2023-03-24T13:28:15.436Z,14.93
2023-03-24T13:29:48.451Z,14.92
2023-03-24T13:30:53.498Z,14.90
2023-03-24T13:32:16.039Z,14.89
2023-03-24T13:33:30.049Z,14.85
2023-03-24T13:34:40.480Z,14.81
2023-03-24T13:36:06.404Z,14.78
2023-03-24T13:37:20.010Z,14.73
2023-03-24T13:38:32.318Z,14.69
2023-03-24T13:39:37.564Z,14.66
2023-03-24T13:40:41.541Z,14.65
2023-03-24T13:41:52.238Z,14.64
2023-03-24T13:43:01.804Z,14.62
2023-03-24T13:44:16.717Z,14.61
2023-03-24T13:45:32.901Z,14.61
2023-03-24T13:46:41.501Z,14.58
2023-03-24T13:48:02.567Z,14.55
2023-03-24T13:49:11.394Z,14.53
2023-03-24T13:50:16.103Z,14.51
2023-03-24T13:51:22.273Z,14.49
2023-03-24T13:52:35.443Z,14.48
2023-03-24T13:54:10.383Z,14.47
2023-03-24T13:55:23.241Z,14.44
2023-03-24T13:56:33.249Z,14.42
2023-03-24T13:57:41.212Z,14.42
2023-03-24T13:58:48.602Z,14.41
2023-03-24T14:00:18.659Z,14.40
2023-03-24T14:02:09.173Z,14.39
2023-03-24T14:03:17.276Z,14.38
2023-03-24T14:04:25.249Z,14.39
2023-03-24T14:05:40.197Z,14.42
2023-03-24T14:06:51.413Z,14.45
2023-03-24T14:08:02.977Z,14.47
2023-03-24T14:09:14.809Z,14.51
2023-03-24T14:10:19.278Z,14.53
2023-03-24T14:11:31.669Z,14.57
2023-03-24T14:13:02.158Z,14.60
2023-03-24T14:14:19.249Z,14.63
2023-03-24T14:15:29.246Z,14.64
2023-03-24T14:16:35.547Z,14.63
2023-03-24T14:17:44.141Z,14.63
2023-03-24T14:18:48.646Z,14.62
2023-03-24T14:20:05.301Z,14.61
2023-03-24T14:21:09.281Z,14.58
2023-03-24T14:22:15.759Z,14.57
2023-03-24T14:23:23.840Z,14.57
2023-03-24T14:24:30.884Z,14.56
2023-03-24T14:25:34.299Z,14.55
2023-03-24T14:26:37.191Z,14.55
2023-03-24T14:27:42.835Z,14.55
2023-03-24T14:28:51.611Z,14.56
2023-03-24T14:29:54.743Z,14.57
2023-03-24T14:31:03.400Z,14.56
2023-03-24T14:32:19.202Z,14.56
2023-03-24T14:33:26.780Z,14.54
2023-03-24T14:34:30.721Z,14.53
2023-03-24T14:35:44.767Z,14.52
2023-03-24T14:37:00.037Z,14.51
2023-03-24T14:38:17.815Z,14.49
2023-03-24T14:39:33.341Z,14.46
2023-03-24T14:40:42.910Z,14.45
2023-03-24T14:41:51.856Z,14.43
2023-03-24T14:42:57.025Z,14.41
2023-03-24T14:44:01.435Z,14.41
2023-03-24T14:45:07.625Z,14.40
2023-03-24T14:46:19.939Z,14.39
2023-03-24T14:47:29.286Z,14.38
2023-03-24T14:48:39.136Z,14.37
2023-03-24T14:49:44.846Z,14.36
2023-03-24T14:50:49.228Z,14.34
2023-03-24T14:52:00.986Z,14.33
2023-03-24T14:53:04.102Z,14.32
2023-03-24T14:54:53.763Z,14.33
2023-03-24T14:55:56.929Z,14.33
2023-03-24T14:57:00.588Z,14.33
2023-03-24T14:58:20.365Z,14.35
2023-03-24T15:00:01.210Z,14.40
2023-03-24T15:01:07.875Z,14.47
2023-03-24T15:02:25.306Z,14.50
2023-03-24T15:04:11.272Z,14.55
2023-03-24T15:05:14.265Z,14.62
2023-03-24T15:06:25.074Z,14.68
2023-03-24T15:07:27.986Z,14.75
2023-03-24T15:08:30.838Z,14.80
2023-03-24T15:09:38.590Z,14.84
2023-03-24T15:11:01.308Z,14.87
2023-03-24T15:12:04.443Z,14.93
2023-03-24T15:13:31.418Z,14.97
2023-03-24T15:14:35.853Z,15.02
2023-03-24T15:15:47.276Z,15.07
2023-03-24T15:17:09.000Z,15.12
2023-03-24T15:18:18.193Z,15.17
2023-03-24T15:19:23.490Z,15.20
2023-03-24T15:20:29.520Z,15.24
2023-03-24T15:21:41.234Z,15.26
2023-03-24T15:22:44.125Z,15.27
2023-03-24T15:23:48.930Z,15.27
2023-03-24T15:24:52.368Z,15.28
2023-03-24T15:25:56.256Z,15.26
2023-03-24T15:27:06.497Z,15.24
2023-03-24T15:28:20.243Z,15.20
2023-03-24T15:29:24.252Z,15.15
2023-03-24T15:30:28.833Z,15.13